Time;durP1;ratioP1;P1;durP2;ratioP2;P2;SDS_P1;SDS_P2;PMS_P1;PMS_P2;Temp;Humidity;BMP_temperature;BMP_pressure;BME280_temperature;BME280_humidity;BME280_pressure;Samples;Min_cycle;Max_cycle;Signal;HPM_P1;HPM_P2
2022/01/21 07:13:37;;;;;;;6.28;1.52;;;19.40;49.80;;;;;;10634389;27;2420310;-60
2022/01/21 07:18:46;;;;;;;11.15;1.73;;;19.40;49.90;;;;;;10661261;27;20483;-69
2022/01/21 07:23:54;;;;;;;9.82;1.30;;;19.40;49.90;;;;;;10674626;27;20035;-71
2022/01/21 07:29:02;;;;;;;;;;;19.30;49.90;;;;;;10661631;27;20039;-70
2022/01/21 07:34:10;;;;;;;4.37;1.37;;;19.30;49.80;;;;;;10661082;27;19919;-71
2022/01/21 07:39:16;;;;;;;5.10;1.52;;;19.30;49.80;;;;;;10660149;27;20047;-70
2022/01/21 07:44:22;;;;;;;2.65;1.30;;;19.20;49.80;;;;;;10659530;27;20047;-70
2022/01/21 07:49:33;;;;;;;10.48;1.77;;;19.20;49.80;;;;;;10659196;27;20039;-69
2022/01/21 07:54:43;;;;;;;4.97;1.67;;;19.20;49.80;;;;;;10660210;27;20061;-68
2022/01/21 07:59:57;;;;;;;4.80;1.75;;;19.20;49.90;;;;;;10612953;28;20112;-70
2022/01/21 08:05:04;;;;;;;4.07;1.67;;;19.20;49.90;;;;;;10596086;28;20132;-70
2022/01/21 08:10:10;;;;;;;3.70;1.40;;;19.20;49.80;;;;;;10638610;27;20046;-69
2022/01/21 08:15:23;;;;;;;6.90;1.60;;;19.10;49.70;;;;;;10633000;27;20453;-70
2022/01/21 08:20:31;;;;;;;4.47;1.40;;;19.20;49.70;;;;;;10617554;27;20147;-70
2022/01/21 08:25:43;;;;;;;3.88;1.90;;;19.10;49.40;;;;;;10605762;27;20097;-71
2022/01/21 08:30:55;;;;;;;5.18;2.25;;;19.10;49.40;;;;;;10583226;28;20056;-69
2022/01/21 08:36:21;;;;;;;5.10;2.40;;;19.00;49.70;;;;;;10593144;27;20407;-72
2022/01/21 08:41:54;;;;;;;8.00;3.78;;;19.00;49.80;;;;;;10628930;27;20054;-72
2022/01/21 08:47:06;;;;;;;7.45;3.70;;;19.00;49.90;;;;;;10629494;27;20060;-71
2022/01/21 08:52:35;;;;;;;8.80;3.08;;;19.00;50.00;;;;;;10586525;28;20043;-72
2022/01/21 08:58:09;;;;;;;7.57;3.30;;;19.00;49.80;;;;;;10568095;28;20121;-71
2022/01/21 09:03:44;;;;;;;7.63;3.17;;;19.00;49.90;;;;;;10583354;28;20051;-71
2022/01/21 09:08:56;;;;;;;4.50;2.90;;;19.00;50.00;;;;;;10599698;27;20047;-69
2022/01/21 09:14:03;;;;;;;9.65;4.22;;;18.90;50.00;;;;;;10628123;27;20051;-72
2022/01/21 09:19:27;;;;;;;12.02;5.15;;;19.00;50.00;;;;;;10626642;27;20092;-70
2022/01/21 09:24:48;;;;;;;10.90;5.38;;;18.90;49.80;;;;;;10613935;27;20043;-73
2022/01/21 09:30:20;;;;;;;;;;;;;;;;;;;;;
2022/01/21 09:35:54;;;;;;;12.02;5.85;;;18.90;49.90;;;;;;10607319;27;20051;-73
2022/01/21 09:42:02;;;;;;;11.48;6.00;;;18.80;49.90;;;;;;10608972;27;20055;-73
2022/01/21 09:47:21;;;;;;;10.80;6.20;;;18.80;49.80;;;;;;10579882;28;20052;-72
2022/01/21 09:52:37;;;;;;;9.95;5.88;;;18.80;49.80;;;;;;10579172;28;20561;-70
2022/01/21 09:58:10;;;;;;;11.15;5.72;;;18.80;49.40;;;;;;10578610;28;20566;-64
2022/01/21 10:03:24;;;;;;;12.27;4.85;;;18.70;49.80;;;;;;10578284;28;20073;-69
2022/01/21 10:08:31;;;;;;;11.45;5.20;;;18.70;50.00;;;;;;10562307;28;20059;-69
2022/01/21 10:13:47;;;;;;;7.78;4.65;;;18.70;50.10;;;;;;10571417;28;20447;-69
2022/01/21 10:19:11;;;;;;;6.90;4.15;;;18.70;50.40;;;;;;10582445;28;20496;-69
2022/01/21 10:24:19;;;;;;;7.30;3.90;;;18.60;50.30;;;;;;10582048;28;20481;-69
2022/01/21 10:29:34;;;;;;;12.05;4.22;;;18.60;50.40;;;;;;10582971;28;20443;-69
2022/01/21 10:34:53;;;;;;;8.00;4.05;;;18.60;50.40;;;;;;10582638;28;20062;-68
2022/01/21 10:40:11;;;;;;;7.22;4.15;;;18.60;50.50;;;;;;10582546;28;20407;-68
2022/01/21 10:45:19;;;;;;;7.00;4.18;;;18.60;50.40;;;;;;10582302;28;20091;-69
2022/01/21 10:50:27;;;;;;;;;;;18.60;50.30;;;;;;10564569;28;20043;-68
2022/01/21 10:55:34;;;;;;;6.20;3.67;;;18.60;49.80;;;;;;10582098;28;19924;-68
2022/01/21 11:01:11;;;;;;;8.40;4.35;;;18.70;49.60;;;;;;10565246;28;20044;-68
2022/01/21 11:06:22;;;;;;;13.37;4.03;;;18.80;49.30;;;;;;10570478;28;20052;-69
2022/01/21 11:11:27;;;;;;;14.30;3.20;;;18.90;49.60;;;;;;10517364;28;20381;-60
2022/01/21 11:16:34;;;;;;;7.40;3.00;;;19.00;49.60;;;;;;10577695;28;20043;-70
2022/01/21 11:22:04;;;;;;;7.47;3.13;;;19.10;49.80;;;;;;10577696;28;20048;-69
2022/01/21 11:27:14;;;;;;;7.05;2.80;;;19.10;49.50;;;;;;10546195;28;20055;-70
2022/01/21 11:32:19;;;;;;;6.10;2.43;;;19.20;49.40;;;;;;10582381;28;20056;-70
2022/01/21 11:37:26;;;;;;;4.40;2.28;;;19.30;49.20;;;;;;10581362;28;20048;-70
2022/01/21 11:42:35;;;;;;;3.65;2.20;;;19.40;49.60;;;;;;10563633;28;20043;-70
2022/01/21 11:48:00;;;;;;;5.63;2.97;;;19.50;48.80;;;;;;10580094;28;20040;-71
2022/01/21 11:53:06;;;;;;;6.72;3.35;;;19.60;48.70;;;;;;10580934;28;20044;-70
2022/01/21 11:58:21;;;;;;;4.93;2.85;;;19.60;48.50;;;;;;10585503;28;20035;-71
2022/01/21 12:03:53;;;;;;;5.63;2.85;;;19.70;48.30;;;;;;10588888;28;20047;-65
2022/01/21 12:09:01;;;;;;;4.95;2.70;;;19.70;48.30;;;;;;10614917;27;20372;-65
2022/01/21 12:14:40;;;;;;;7.10;3.72;;;19.70;48.80;;;;;;10591426;27;20055;-70
2022/01/21 12:20:10;;;;;;;20.20;6.97;;;19.80;49.10;;;;;;10598702;27;20047;-67
2022/01/21 12:25:21;;;;;;;12.52;6.05;;;19.90;49.10;;;;;;10628543;27;20048;-69
2022/01/21 12:30:42;;;;;;;17.33;7.18;;;20.00;49.00;;;;;;10544863;28;20048;-70
2022/01/21 12:36:18;;;;;;;15.90;7.30;;;20.00;48.90;;;;;;10556734;28;20039;-68
2022/01/21 12:41:23;;;;;;;17.60;7.00;;;20.00;49.00;;;;;;10588243;28;20096;-70
2022/01/21 12:46:44;;;;;;;12.18;6.72;;;20.00;49.00;;;;;;10585906;28;20051;-69
2022/01/21 12:52:09;;;;;;;13.55;6.15;;;20.00;48.90;;;;;;10586346;28;20077;-69
2022/01/21 12:57:19;;;;;;;9.50;5.55;;;20.00;48.80;;;;;;10568815;28;20449;-69
2022/01/21 13:02:33;;;;;;;7.32;4.60;;;20.10;48.60;;;;;;10590670;27;20068;-70
2022/01/21 13:08:04;;;;;;;8.05;5.13;;;20.20;48.60;;;;;;10609593;27;20043;-67
2022/01/21 13:13:59;;;;;;;7.50;4.90;;;20.20;48.50;;;;;;10628328;27;20051;-72
2022/01/21 13:19:22;;;;;;;16.85;9.27;;;20.30;48.50;;;;;;10627037;27;20119;-70
2022/01/21 13:24:31;;;;;;;17.83;9.80;;;20.30;48.50;;;;;;10628150;27;20147;-70
2022/01/21 13:29:38;;;;;;;14.13;8.45;;;20.30;48.50;;;;;;10627634;27;20051;-69
2022/01/21 13:34:47;;;;;;;13.93;7.70;;;20.20;48.50;;;;;;10626498;27;20035;-67
2022/01/21 13:39:53;;;;;;;11.15;6.43;;;20.20;48.50;;;;;;10623165;27;20039;-68
2022/01/21 13:45:05;;;;;;;12.00;5.75;;;20.10;48.80;;;;;;10624847;27;20055;-65
2022/01/21 13:50:19;;;;;;;21.00;5.13;;;20.00;48.80;;;;;;10615918;27;20054;-66
